sensor_id;sensor_type;location;lat;lon;timestamp;P1;durP1;ratioP1;P2;durP2;ratioP2
49366;SDS011;35245;52.026;8.540;2024-02-21T00:00:30;35.22;;;15.15;;
49366;SDS011;35245;52.026;8.540;2024-02-21T00:02:57;33.97;;;16.13;;
49366;SDS011;35245;52.026;8.540;2024-02-21T00:05:27;32.25;;;15.77;;
49366;SDS011;35245;52.026;8.540;2024-02-21T00:07:55;30.25;;;16.05;;
49366;SDS011;35245;52.026;8.540;2024-02-21T00:10:25;33.03;;;15.35;;
49366;SDS011;35245;52.026;8.540;2024-02-21T00:12:52;35.13;;;16.50;;
49366;SDS011;35245;52.026;8.540;2024-02-21T00:15:19;33.53;;;16.95;;
49366;SDS011;35245;52.026;8.540;2024-02-21T00:17:47;31.98;;;15.85;;
49366;SDS011;35245;52.026;8.540;2024-02-21T00:20:14;37.65;;;16.55;;
49366;SDS011;35245;52.026;8.540;2024-02-21T00:22:42;31.70;;;16.77;;
49366;SDS011;35245;52.026;8.540;2024-02-21T00:25:11;33.33;;;16.73;;
49366;SDS011;35245;52.026;8.540;2024-02-21T00:27:39;29.48;;;16.35;;
49366;SDS011;35245;52.026;8.540;2024-02-21T00:30:06;34.03;;;17.25;;
49366;SDS011;35245;52.026;8.540;2024-02-21T00:32:35;31.25;;;16.15;;
49366;SDS011;35245;52.026;8.540;2024-02-21T00:35:02;30.35;;;17.92;;
49366;SDS011;35245;52.026;8.540;2024-02-21T00:37:30;38.47;;;17.45;;
49366;SDS011;35245;52.026;8.540;2024-02-21T00:39:58;34.13;;;18.00;;
49366;SDS011;35245;52.026;8.540;2024-02-21T00:42:26;34.40;;;17.65;;
49366;SDS011;35245;52.026;8.540;2024-02-21T00:44:53;28.92;;;16.08;;
49366;SDS011;35245;52.026;8.540;2024-02-21T00:47:20;30.55;;;17.38;;
49366;SDS011;35245;52.026;8.540;2024-02-21T00:49:47;32.45;;;16.13;;
49366;SDS011;35245;52.026;8.540;2024-02-21T00:52:15;31.92;;;17.30;;
49366;SDS011;35245;52.026;8.540;2024-02-21T00:54:42;32.08;;;17.45;;
49366;SDS011;35245;52.026;8.540;2024-02-21T00:57:09;31.80;;;16.73;;
49366;SDS011;35245;52.026;8.540;2024-02-21T00:59:37;32.88;;;15.63;;
49366;SDS011;35245;52.026;8.540;2024-02-21T01:02:04;31.55;;;17.20;;
49366;SDS011;35245;52.026;8.540;2024-02-21T01:04:31;32.03;;;17.08;;
49366;SDS011;35245;52.026;8.540;2024-02-21T01:06:59;30.60;;;15.32;;
49366;SDS011;35245;52.026;8.540;2024-02-21T01:09:26;28.67;;;15.00;;
49366;SDS011;35245;52.026;8.540;2024-02-21T01:11:53;30.20;;;15.90;;
49366;SDS011;35245;52.026;8.540;2024-02-21T01:14:20;30.15;;;15.90;;
49366;SDS011;35245;52.026;8.540;2024-02-21T01:16:48;29.13;;;15.55;;
49366;SDS011;35245;52.026;8.540;2024-02-21T01:19:16;30.98;;;15.88;;
49366;SDS011;35245;52.026;8.540;2024-02-21T01:21:43;33.33;;;16.23;;
49366;SDS011;35245;52.026;8.540;2024-02-21T01:24:10;36.42;;;15.45;;
49366;SDS011;35245;52.026;8.540;2024-02-21T01:26:37;31.92;;;14.98;;
49366;SDS011;35245;52.026;8.540;2024-02-21T01:29:04;35.35;;;15.23;;
49366;SDS011;35245;52.026;8.540;2024-02-21T01:31:30;28.85;;;15.60;;
49366;SDS011;35245;52.026;8.540;2024-02-21T01:33:59;31.23;;;15.57;;
49366;SDS011;35245;52.026;8.540;2024-02-21T01:36:26;28.05;;;15.32;;
49366;SDS011;35245;52.026;8.540;2024-02-21T01:38:53;28.67;;;15.40;;
49366;SDS011;35245;52.026;8.540;2024-02-21T01:41:20;37.50;;;17.42;;
49366;SDS011;35245;52.026;8.540;2024-02-21T01:43:47;33.67;;;16.08;;
49366;SDS011;35245;52.026;8.540;2024-02-21T01:46:14;31.33;;;15.30;;
49366;SDS011;35245;52.026;8.540;2024-02-21T01:48:42;38.45;;;15.77;;
49366;SDS011;35245;52.026;8.540;2024-02-21T01:51:12;31.85;;;15.23;;
49366;SDS011;35245;52.026;8.540;2024-02-21T01:53:40;30.23;;;16.05;;
49366;SDS011;35245;52.026;8.540;2024-02-21T01:56:11;34.45;;;16.35;;
49366;SDS011;35245;52.026;8.540;2024-02-21T01:58:40;30.00;;;15.80;;
49366;SDS011;35245;52.026;8.540;2024-02-21T02:01:09;29.00;;;14.38;;
49366;SDS011;35245;52.026;8.540;2024-02-21T02:03:36;29.55;;;15.25;;
49366;SDS011;35245;52.026;8.540;2024-02-21T02:06:05;36.00;;;16.38;;
49366;SDS011;35245;52.026;8.540;2024-02-21T02:08:34;34.33;;;16.30;;
49366;SDS011;35245;52.026;8.540;2024-02-21T02:11:01;33.05;;;15.68;;
49366;SDS011;35245;52.026;8.540;2024-02-21T02:13:29;35.63;;;16.50;;
49366;SDS011;35245;52.026;8.540;2024-02-21T02:15:56;29.55;;;16.25;;
49366;SDS011;35245;52.026;8.540;2024-02-21T02:18:23;34.78;;;16.02;;
49366;SDS011;35245;52.026;8.540;2024-02-21T02:20:50;28.85;;;15.73;;
49366;SDS011;35245;52.026;8.540;2024-02-21T02:23:21;35.22;;;16.38;;
49366;SDS011;35245;52.026;8.540;2024-02-21T02:25:50;32.53;;;16.55;;
49366;SDS011;35245;52.026;8.540;2024-02-21T02:28:18;30.58;;;15.30;;
49366;SDS011;35245;52.026;8.540;2024-02-21T02:30:46;35.05;;;15.98;;
49366;SDS011;35245;52.026;8.540;2024-02-21T02:33:13;37.92;;;17.65;;
49366;SDS011;35245;52.026;8.540;2024-02-21T02:35:42;33.80;;;16.65;;
49366;SDS011;35245;52.026;8.540;2024-02-21T02:38:09;31.90;;;16.60;;
49366;SDS011;35245;52.026;8.540;2024-02-21T02:40:39;31.08;;;16.80;;
49366;SDS011;35245;52.026;8.540;2024-02-21T02:43:07;29.02;;;16.50;;
49366;SDS011;35245;52.026;8.540;2024-02-21T02:45:34;29.75;;;16.00;;
49366;SDS011;35245;52.026;8.540;2024-02-21T02:48:02;31.50;;;17.38;;
49366;SDS011;35245;52.026;8.540;2024-02-21T02:50:29;31.77;;;15.75;;
49366;SDS011;35245;52.026;8.540;2024-02-21T02:52:57;33.63;;;17.17;;
49366;SDS011;35245;52.026;8.540;2024-02-21T02:55:24;30.80;;;16.77;;
49366;SDS011;35245;52.026;8.540;2024-02-21T02:57:53;36.30;;;18.75;;
49366;SDS011;35245;52.026;8.540;2024-02-21T03:00:21;31.45;;;17.13;;
49366;SDS011;35245;52.026;8.540;2024-02-21T03:02:49;35.92;;;18.08;;
49366;SDS011;35245;52.026;8.540;2024-02-21T03:05:17;27.33;;;16.23;;
49366;SDS011;35245;52.026;8.540;2024-02-21T03:07:46;31.92;;;16.38;;
49366;SDS011;35245;52.026;8.540;2024-02-21T03:10:14;30.40;;;17.10;;
49366;SDS011;35245;52.026;8.540;2024-02-21T03:12:42;33.15;;;17.10;;
49366;SDS011;35245;52.026;8.540;2024-02-21T03:15:11;27.52;;;15.82;;
49366;SDS011;35245;52.026;8.540;2024-02-21T03:17:39;25.30;;;14.95;;
49366;SDS011;35245;52.026;8.540;2024-02-21T03:20:06;31.25;;;15.75;;
49366;SDS011;35245;52.026;8.540;2024-02-21T03:22:35;28.77;;;15.55;;
49366;SDS011;35245;52.026;8.540;2024-02-21T03:25:02;34.13;;;15.55;;
49366;SDS011;35245;52.026;8.540;2024-02-21T03:27:31;27.90;;;15.93;;
49366;SDS011;35245;52.026;8.540;2024-02-21T03:29:58;24.67;;;15.57;;
49366;SDS011;35245;52.026;8.540;2024-02-21T03:32:27;25.77;;;16.27;;
49366;SDS011;35245;52.026;8.540;2024-02-21T03:34:54;28.65;;;15.68;;
49366;SDS011;35245;52.026;8.540;2024-02-21T03:37:21;28.02;;;15.02;;
49366;SDS011;35245;52.026;8.540;2024-02-21T03:39:48;32.80;;;16.15;;
49366;SDS011;35245;52.026;8.540;2024-02-21T03:42:15;29.20;;;16.48;;
49366;SDS011;35245;52.026;8.540;2024-02-21T03:44:42;34.30;;;15.50;;
49366;SDS011;35245;52.026;8.540;2024-02-21T03:47:09;30.90;;;15.13;;
49366;SDS011;35245;52.026;8.540;2024-02-21T03:49:38;27.42;;;13.38;;
49366;SDS011;35245;52.026;8.540;2024-02-21T03:52:05;25.33;;;14.55;;
49366;SDS011;35245;52.026;8.540;2024-02-21T03:54:33;33.70;;;15.48;;
49366;SDS011;35245;52.026;8.540;2024-02-21T03:57:00;26.30;;;14.98;;
49366;SDS011;35245;52.026;8.540;2024-02-21T03:59:27;25.63;;;13.55;;
49366;SDS011;35245;52.026;8.540;2024-02-21T04:01:54;26.73;;;14.05;;
49366;SDS011;35245;52.026;8.540;2024-02-21T04:04:22;28.45;;;14.00;;
49366;SDS011;35245;52.026;8.540;2024-02-21T04:06:50;24.70;;;14.52;;
49366;SDS011;35245;52.026;8.540;2024-02-21T04:09:18;26.77;;;13.90;;
49366;SDS011;35245;52.026;8.540;2024-02-21T04:11:45;26.38;;;14.13;;
49366;SDS011;35245;52.026;8.540;2024-02-21T04:14:12;29.52;;;12.57;;
49366;SDS011;35245;52.026;8.540;2024-02-21T04:16:39;25.92;;;14.07;;
49366;SDS011;35245;52.026;8.540;2024-02-21T04:19:06;26.25;;;14.40;;
49366;SDS011;35245;52.026;8.540;2024-02-21T04:21:34;26.10;;;13.45;;
49366;SDS011;35245;52.026;8.540;2024-02-21T04:24:03;23.27;;;13.15;;
49366;SDS011;35245;52.026;8.540;2024-02-21T04:26:30;33.13;;;13.68;;
49366;SDS011;35245;52.026;8.540;2024-02-21T04:28:57;29.13;;;13.80;;
49366;SDS011;35245;52.026;8.540;2024-02-21T04:31:25;24.58;;;14.05;;
49366;SDS011;35245;52.026;8.540;2024-02-21T04:33:52;25.60;;;13.52;;
49366;SDS011;35245;52.026;8.540;2024-02-21T04:36:19;29.33;;;13.27;;
49366;SDS011;35245;52.026;8.540;2024-02-21T04:38:46;26.42;;;13.35;;
49366;SDS011;35245;52.026;8.540;2024-02-21T04:41:15;31.58;;;13.93;;
49366;SDS011;35245;52.026;8.540;2024-02-21T04:43:42;25.27;;;12.63;;
49366;SDS011;35245;52.026;8.540;2024-02-21T04:46:09;22.13;;;12.13;;
49366;SDS011;35245;52.026;8.540;2024-02-21T04:48:36;31.00;;;13.73;;
49366;SDS011;35245;52.026;8.540;2024-02-21T04:51:04;25.55;;;13.15;;
49366;SDS011;35245;52.026;8.540;2024-02-21T04:53:31;26.27;;;12.80;;
49366;SDS011;35245;52.026;8.540;2024-02-21T04:55:58;27.73;;;13.38;;
49366;SDS011;35245;52.026;8.540;2024-02-21T04:58:26;26.45;;;13.88;;
49366;SDS011;35245;52.026;8.540;2024-02-21T05:00:53;33.35;;;14.13;;
49366;SDS011;35245;52.026;8.540;2024-02-21T05:03:21;26.15;;;13.27;;
49366;SDS011;35245;52.026;8.540;2024-02-21T05:05:48;25.83;;;13.98;;
49366;SDS011;35245;52.026;8.540;2024-02-21T05:08:15;28.88;;;14.15;;
49366;SDS011;35245;52.026;8.540;2024-02-21T05:10:42;31.83;;;14.35;;
49366;SDS011;35245;52.026;8.540;2024-02-21T05:13:10;27.48;;;13.80;;
49366;SDS011;35245;52.026;8.540;2024-02-21T05:15:38;31.38;;;14.88;;
49366;SDS011;35245;52.026;8.540;2024-02-21T05:18:05;24.75;;;13.68;;
49366;SDS011;35245;52.026;8.540;2024-02-21T05:20:32;29.42;;;14.05;;
49366;SDS011;35245;52.026;8.540;2024-02-21T05:23:00;33.05;;;15.27;;
49366;SDS011;35245;52.026;8.540;2024-02-21T05:25:27;25.65;;;14.68;;
49366;SDS011;35245;52.026;8.540;2024-02-21T05:27:54;30.83;;;14.98;;
49366;SDS011;35245;52.026;8.540;2024-02-21T05:30:26;30.55;;;14.80;;
49366;SDS011;35245;52.026;8.540;2024-02-21T05:32:55;31.55;;;14.30;;
49366;SDS011;35245;52.026;8.540;2024-02-21T05:35:24;26.58;;;14.48;;
49366;SDS011;35245;52.026;8.540;2024-02-21T05:37:53;31.20;;;15.70;;
49366;SDS011;35245;52.026;8.540;2024-02-21T05:40:20;29.15;;;15.60;;
49366;SDS011;35245;52.026;8.540;2024-02-21T05:42:48;29.95;;;15.88;;
49366;SDS011;35245;52.026;8.540;2024-02-21T05:45:16;32.33;;;14.98;;
49366;SDS011;35245;52.026;8.540;2024-02-21T05:47:43;29.58;;;15.48;;
49366;SDS011;35245;52.026;8.540;2024-02-21T05:50:12;32.60;;;14.63;;
49366;SDS011;35245;52.026;8.540;2024-02-21T05:52:39;27.95;;;14.50;;
49366;SDS011;35245;52.026;8.540;2024-02-21T05:55:06;29.67;;;14.85;;
49366;SDS011;35245;52.026;8.540;2024-02-21T05:57:34;24.17;;;14.20;;
49366;SDS011;35245;52.026;8.540;2024-02-21T06:00:03;28.83;;;14.27;;
49366;SDS011;35245;52.026;8.540;2024-02-21T06:02:31;28.60;;;15.80;;
49366;SDS011;35245;52.026;8.540;2024-02-21T06:04:59;29.02;;;15.32;;
49366;SDS011;35245;52.026;8.540;2024-02-21T06:07:27;31.10;;;14.48;;
49366;SDS011;35245;52.026;8.540;2024-02-21T06:09:54;27.95;;;15.52;;
49366;SDS011;35245;52.026;8.540;2024-02-21T06:12:21;27.88;;;15.13;;
49366;SDS011;35245;52.026;8.540;2024-02-21T06:14:48;31.95;;;15.82;;
49366;SDS011;35245;52.026;8.540;2024-02-21T06:17:15;29.92;;;15.73;;
49366;SDS011;35245;52.026;8.540;2024-02-21T06:19:43;31.83;;;15.38;;
49366;SDS011;35245;52.026;8.540;2024-02-21T06:22:10;29.63;;;15.85;;
49366;SDS011;35245;52.026;8.540;2024-02-21T06:24:39;29.05;;;15.50;;
49366;SDS011;35245;52.026;8.540;2024-02-21T06:27:06;29.15;;;15.90;;
49366;SDS011;35245;52.026;8.540;2024-02-21T06:29:33;33.72;;;15.35;;
49366;SDS011;35245;52.026;8.540;2024-02-21T06:32:01;38.13;;;17.13;;
49366;SDS011;35245;52.026;8.540;2024-02-21T06:34:29;31.60;;;15.70;;
49366;SDS011;35245;52.026;8.540;2024-02-21T06:36:56;29.35;;;14.52;;
49366;SDS011;35245;52.026;8.540;2024-02-21T06:39:23;26.45;;;14.85;;
49366;SDS011;35245;52.026;8.540;2024-02-21T06:41:51;25.20;;;14.43;;
49366;SDS011;35245;52.026;8.540;2024-02-21T06:44:19;27.80;;;14.60;;
49366;SDS011;35245;52.026;8.540;2024-02-21T06:46:47;29.13;;;14.88;;
49366;SDS011;35245;52.026;8.540;2024-02-21T06:49:15;30.10;;;14.68;;
49366;SDS011;35245;52.026;8.540;2024-02-21T06:51:42;31.65;;;14.25;;
49366;SDS011;35245;52.026;8.540;2024-02-21T06:54:09;24.15;;;12.50;;
49366;SDS011;35245;52.026;8.540;2024-02-21T06:56:36;25.88;;;12.52;;
49366;SDS011;35245;52.026;8.540;2024-02-21T06:59:07;30.98;;;12.93;;
49366;SDS011;35245;52.026;8.540;2024-02-21T07:01:34;22.90;;;11.65;;
49366;SDS011;35245;52.026;8.540;2024-02-21T07:04:01;23.15;;;11.68;;
49366;SDS011;35245;52.026;8.540;2024-02-21T07:06:28;20.98;;;10.82;;
49366;SDS011;35245;52.026;8.540;2024-02-21T07:08:56;21.77;;;11.40;;
49366;SDS011;35245;52.026;8.540;2024-02-21T07:11:23;21.38;;;10.73;;
49366;SDS011;35245;52.026;8.540;2024-02-21T07:13:50;23.30;;;11.25;;
49366;SDS011;35245;52.026;8.540;2024-02-21T07:16:20;22.35;;;10.45;;
49366;SDS011;35245;52.026;8.540;2024-02-21T07:18:47;24.13;;;11.02;;
49366;SDS011;35245;52.026;8.540;2024-02-21T07:21:14;21.23;;;10.02;;
49366;SDS011;35245;52.026;8.540;2024-02-21T07:23:41;22.17;;;9.32;;
49366;SDS011;35245;52.026;8.540;2024-02-21T07:26:08;19.27;;;10.02;;
49366;SDS011;35245;52.026;8.540;2024-02-21T07:28:35;20.50;;;9.60;;
49366;SDS011;35245;52.026;8.540;2024-02-21T07:31:03;18.23;;;9.32;;
49366;SDS011;35245;52.026;8.540;2024-02-21T07:33:31;23.48;;;9.20;;
49366;SDS011;35245;52.026;8.540;2024-02-21T07:36:00;20.00;;;8.45;;
49366;SDS011;35245;52.026;8.540;2024-02-21T07:38:27;18.38;;;8.88;;
49366;SDS011;35245;52.026;8.540;2024-02-21T07:40:54;18.88;;;8.93;;
49366;SDS011;35245;52.026;8.540;2024-02-21T07:43:21;19.02;;;8.93;;
49366;SDS011;35245;52.026;8.540;2024-02-21T07:45:49;21.35;;;8.70;;
49366;SDS011;35245;52.026;8.540;2024-02-21T07:48:16;16.15;;;8.20;;
49366;SDS011;35245;52.026;8.540;2024-02-21T07:50:45;20.30;;;8.93;;
49366;SDS011;35245;52.026;8.540;2024-02-21T07:53:12;24.10;;;9.93;;
49366;SDS011;35245;52.026;8.540;2024-02-21T07:55:41;19.33;;;9.43;;
49366;SDS011;35245;52.026;8.540;2024-02-21T07:58:08;21.58;;;9.20;;
49366;SDS011;35245;52.026;8.540;2024-02-21T08:00:35;21.95;;;9.25;;
49366;SDS011;35245;52.026;8.540;2024-02-21T08:03:02;18.20;;;8.90;;
49366;SDS011;35245;52.026;8.540;2024-02-21T08:05:30;23.23;;;8.80;;
49366;SDS011;35245;52.026;8.540;2024-02-21T08:08:01;17.17;;;8.73;;
49366;SDS011;35245;52.026;8.540;2024-02-21T08:10:29;17.75;;;7.90;;
49366;SDS011;35245;52.026;8.540;2024-02-21T08:12:56;18.27;;;7.65;;
49366;SDS011;35245;52.026;8.540;2024-02-21T08:15:23;21.35;;;8.23;;
49366;SDS011;35245;52.026;8.540;2024-02-21T08:17:54;22.23;;;8.13;;
49366;SDS011;35245;52.026;8.540;2024-02-21T08:20:24;17.00;;;7.30;;
49366;SDS011;35245;52.026;8.540;2024-02-21T08:22:51;12.88;;;6.28;;
49366;SDS011;35245;52.026;8.540;2024-02-21T08:25:20;16.48;;;7.03;;
49366;SDS011;35245;52.026;8.540;2024-02-21T08:27:47;15.40;;;7.05;;
49366;SDS011;35245;52.026;8.540;2024-02-21T08:30:16;14.35;;;7.05;;
49366;SDS011;35245;52.026;8.540;2024-02-21T08:32:44;17.05;;;7.53;;
49366;SDS011;35245;52.026;8.540;2024-02-21T08:35:11;15.75;;;6.22;;
49366;SDS011;35245;52.026;8.540;2024-02-21T08:37:38;17.38;;;6.57;;
49366;SDS011;35245;52.026;8.540;2024-02-21T08:40:06;15.13;;;6.68;;
49366;SDS011;35245;52.026;8.540;2024-02-21T08:42:35;15.80;;;6.63;;
49366;SDS011;35245;52.026;8.540;2024-02-21T08:45:05;13.25;;;6.05;;
49366;SDS011;35245;52.026;8.540;2024-02-21T08:47:34;17.58;;;6.60;;
49366;SDS011;35245;52.026;8.540;2024-02-21T08:50:01;17.83;;;6.78;;
49366;SDS011;35245;52.026;8.540;2024-02-21T08:52:31;15.07;;;6.75;;
49366;SDS011;35245;52.026;8.540;2024-02-21T08:54:58;10.45;;;6.13;;
49366;SDS011;35245;52.026;8.540;2024-02-21T08:57:25;15.77;;;5.93;;
49366;SDS011;35245;52.026;8.540;2024-02-21T08:59:54;17.25;;;7.00;;
49366;SDS011;35245;52.026;8.540;2024-02-21T09:02:21;15.63;;;6.63;;
49366;SDS011;35245;52.026;8.540;2024-02-21T09:04:49;16.88;;;6.68;;
49366;SDS011;35245;52.026;8.540;2024-02-21T09:07:16;13.50;;;6.40;;
49366;SDS011;35245;52.026;8.540;2024-02-21T09:09:44;14.48;;;5.57;;
49366;SDS011;35245;52.026;8.540;2024-02-21T09:12:11;12.13;;;5.40;;
49366;SDS011;35245;52.026;8.540;2024-02-21T09:14:40;16.83;;;6.38;;
49366;SDS011;35245;52.026;8.540;2024-02-21T09:17:08;15.23;;;6.22;;
49366;SDS011;35245;52.026;8.540;2024-02-21T09:19:35;15.13;;;5.70;;
49366;SDS011;35245;52.026;8.540;2024-02-21T09:22:03;12.23;;;5.68;;
49366;SDS011;35245;52.026;8.540;2024-02-21T09:24:30;11.80;;;5.00;;
49366;SDS011;35245;52.026;8.540;2024-02-21T09:26:57;18.20;;;6.40;;
49366;SDS011;35245;52.026;8.540;2024-02-21T09:29:25;13.07;;;5.45;;
49366;SDS011;35245;52.026;8.540;2024-02-21T09:31:52;13.00;;;5.68;;
49366;SDS011;35245;52.026;8.540;2024-02-21T09:34:20;13.45;;;5.05;;
49366;SDS011;35245;52.026;8.540;2024-02-21T09:36:47;14.70;;;6.25;;
49366;SDS011;35245;52.026;8.540;2024-02-21T09:39:14;17.35;;;5.30;;
49366;SDS011;35245;52.026;8.540;2024-02-21T09:41:44;12.68;;;4.53;;
49366;SDS011;35245;52.026;8.540;2024-02-21T09:44:17;12.80;;;5.10;;
49366;SDS011;35245;52.026;8.540;2024-02-21T09:46:49;11.80;;;5.10;;
49366;SDS011;35245;52.026;8.540;2024-02-21T09:49:29;11.85;;;4.88;;
49366;SDS011;35245;52.026;8.540;2024-02-21T09:51:57;10.63;;;4.50;;
49366;SDS011;35245;52.026;8.540;2024-02-21T09:54:27;13.15;;;4.60;;
49366;SDS011;35245;52.026;8.540;2024-02-21T09:56:56;11.13;;;4.80;;
49366;SDS011;35245;52.026;8.540;2024-02-21T09:59:23;13.25;;;4.82;;
49366;SDS011;35245;52.026;8.540;2024-02-21T10:01:51;11.43;;;4.70;;
49366;SDS011;35245;52.026;8.540;2024-02-21T10:04:18;12.18;;;5.30;;
49366;SDS011;35245;52.026;8.540;2024-02-21T10:06:47;11.15;;;4.97;;
49366;SDS011;35245;52.026;8.540;2024-02-21T10:09:21;12.50;;;5.07;;
49366;SDS011;35245;52.026;8.540;2024-02-21T10:11:49;12.30;;;4.50;;
49366;SDS011;35245;52.026;8.540;2024-02-21T10:14:16;13.63;;;4.63;;
49366;SDS011;35245;52.026;8.540;2024-02-21T10:16:44;11.38;;;4.82;;
49366;SDS011;35245;52.026;8.540;2024-02-21T10:19:16;13.80;;;5.18;;
49366;SDS011;35245;52.026;8.540;2024-02-21T10:21:57;11.93;;;4.90;;
49366;SDS011;35245;52.026;8.540;2024-02-21T10:24:30;8.70;;;4.88;;
49366;SDS011;35245;52.026;8.540;2024-02-21T10:26:58;11.50;;;5.80;;
49366;SDS011;35245;52.026;8.540;2024-02-21T10:29:29;10.30;;;5.28;;
49366;SDS011;35245;52.026;8.540;2024-02-21T10:32:06;21.02;;;7.18;;
49366;SDS011;35245;52.026;8.540;2024-02-21T10:34:34;13.63;;;6.22;;
49366;SDS011;35245;52.026;8.540;2024-02-21T10:37:04;11.70;;;5.78;;
49366;SDS011;35245;52.026;8.540;2024-02-21T10:39:33;12.68;;;5.57;;
49366;SDS011;35245;52.026;8.540;2024-02-21T10:42:03;11.18;;;5.38;;
49366;SDS011;35245;52.026;8.540;2024-02-21T10:44:31;13.52;;;5.80;;
49366;SDS011;35245;52.026;8.540;2024-02-21T10:49:35;12.32;;;6.45;;
49366;SDS011;35245;52.026;8.540;2024-02-21T10:52:09;13.95;;;6.43;;
49366;SDS011;35245;52.026;8.540;2024-02-21T10:54:44;13.30;;;6.55;;
49366;SDS011;35245;52.026;8.540;2024-02-21T10:57:19;13.02;;;7.15;;
49366;SDS011;35245;52.026;8.540;2024-02-21T10:59:47;14.70;;;7.78;;
49366;SDS011;35245;52.026;8.540;2024-02-21T11:02:15;13.18;;;7.20;;
49366;SDS011;35245;52.026;8.540;2024-02-21T11:04:42;15.80;;;7.72;;
49366;SDS011;35245;52.026;8.540;2024-02-21T11:07:12;14.55;;;7.93;;
49366;SDS011;35245;52.026;8.540;2024-02-21T11:09:40;18.13;;;8.15;;
49366;SDS011;35245;52.026;8.540;2024-02-21T11:12:19;15.18;;;8.45;;
49366;SDS011;35245;52.026;8.540;2024-02-21T11:14:47;14.70;;;7.38;;
49366;SDS011;35245;52.026;8.540;2024-02-21T11:17:15;16.75;;;7.68;;
49366;SDS011;35245;52.026;8.540;2024-02-21T11:19:42;18.73;;;8.35;;
49366;SDS011;35245;52.026;8.540;2024-02-21T11:22:15;16.77;;;8.23;;
49366;SDS011;35245;52.026;8.540;2024-02-21T11:24:43;14.80;;;7.72;;
49366;SDS011;35245;52.026;8.540;2024-02-21T11:27:11;18.02;;;7.40;;
49366;SDS011;35245;52.026;8.540;2024-02-21T11:29:42;18.80;;;8.57;;
49366;SDS011;35245;52.026;8.540;2024-02-21T11:32:10;15.02;;;7.60;;
49366;SDS011;35245;52.026;8.540;2024-02-21T11:34:37;19.58;;;8.93;;
49366;SDS011;35245;52.026;8.540;2024-02-21T11:37:12;20.17;;;8.35;;
49366;SDS011;35245;52.026;8.540;2024-02-21T11:39:42;17.83;;;8.30;;
49366;SDS011;35245;52.026;8.540;2024-02-21T11:42:09;18.30;;;9.98;;
49366;SDS011;35245;52.026;8.540;2024-02-21T11:44:37;16.52;;;8.60;;
49366;SDS011;35245;52.026;8.540;2024-02-21T11:47:05;16.95;;;8.27;;
49366;SDS011;35245;52.026;8.540;2024-02-21T11:49:35;20.80;;;8.35;;
49366;SDS011;35245;52.026;8.540;2024-02-21T11:52:05;15.55;;;7.68;;
49366;SDS011;35245;52.026;8.540;2024-02-21T11:54:34;15.95;;;7.57;;
49366;SDS011;35245;52.026;8.540;2024-02-21T11:57:01;13.30;;;6.95;;
49366;SDS011;35245;52.026;8.540;2024-02-21T11:59:29;14.68;;;7.30;;
49366;SDS011;35245;52.026;8.540;2024-02-21T12:01:58;14.35;;;6.93;;
49366;SDS011;35245;52.026;8.540;2024-02-21T12:04:26;14.40;;;8.07;;
49366;SDS011;35245;52.026;8.540;2024-02-21T12:06:53;17.40;;;7.40;;
49366;SDS011;35245;52.026;8.540;2024-02-21T12:09:22;16.10;;;7.22;;
49366;SDS011;35245;52.026;8.540;2024-02-21T12:11:57;16.05;;;7.22;;
49366;SDS011;35245;52.026;8.540;2024-02-21T12:14:26;16.30;;;7.32;;
49366;SDS011;35245;52.026;8.540;2024-02-21T12:16:55;12.65;;;6.90;;
49366;SDS011;35245;52.026;8.540;2024-02-21T12:19:22;19.08;;;7.30;;
49366;SDS011;35245;52.026;8.540;2024-02-21T12:21:49;13.40;;;6.90;;
49366;SDS011;35245;52.026;8.540;2024-02-21T12:24:17;16.73;;;7.68;;
49366;SDS011;35245;52.026;8.540;2024-02-21T12:26:48;15.43;;;7.03;;
49366;SDS011;35245;52.026;8.540;2024-02-21T12:29:16;15.27;;;7.70;;
49366;SDS011;35245;52.026;8.540;2024-02-21T12:31:43;13.90;;;7.07;;
49366;SDS011;35245;52.026;8.540;2024-02-21T12:34:11;17.92;;;6.82;;
49366;SDS011;35245;52.026;8.540;2024-02-21T12:36:40;14.35;;;5.97;;
49366;SDS011;35245;52.026;8.540;2024-02-21T12:39:09;13.87;;;6.13;;
49366;SDS011;35245;52.026;8.540;2024-02-21T12:41:36;15.57;;;6.80;;
49366;SDS011;35245;52.026;8.540;2024-02-21T12:44:05;11.88;;;5.90;;
49366;SDS011;35245;52.026;8.540;2024-02-21T12:46:34;12.57;;;6.45;;
49366;SDS011;35245;52.026;8.540;2024-02-21T12:49:01;19.02;;;7.82;;
49366;SDS011;35245;52.026;8.540;2024-02-21T12:51:29;17.45;;;8.43;;
49366;SDS011;35245;52.026;8.540;2024-02-21T12:53:56;16.20;;;7.50;;
49366;SDS011;35245;52.026;8.540;2024-02-21T12:56:24;17.10;;;7.88;;
49366;SDS011;35245;52.026;8.540;2024-02-21T12:58:52;20.40;;;8.35;;
49366;SDS011;35245;52.026;8.540;2024-02-21T13:01:19;18.13;;;8.60;;
49366;SDS011;35245;52.026;8.540;2024-02-21T13:03:48;17.00;;;8.05;;
49366;SDS011;35245;52.026;8.540;2024-02-21T13:06:15;17.10;;;7.60;;
49366;SDS011;35245;52.026;8.540;2024-02-21T13:08:44;20.40;;;7.90;;
49366;SDS011;35245;52.026;8.540;2024-02-21T13:11:12;16.40;;;7.13;;
49366;SDS011;35245;52.026;8.540;2024-02-21T13:13:39;16.80;;;7.45;;
49366;SDS011;35245;52.026;8.540;2024-02-21T13:16:06;18.33;;;7.40;;
49366;SDS011;35245;52.026;8.540;2024-02-21T13:18:35;13.35;;;6.03;;
49366;SDS011;35245;52.026;8.540;2024-02-21T13:21:04;15.60;;;6.75;;
49366;SDS011;35245;52.026;8.540;2024-02-21T13:23:32;13.32;;;6.07;;
49366;SDS011;35245;52.026;8.540;2024-02-21T13:25:59;14.05;;;6.13;;
49366;SDS011;35245;52.026;8.540;2024-02-21T13:28:26;14.55;;;6.60;;
49366;SDS011;35245;52.026;8.540;2024-02-21T13:30:53;17.50;;;6.05;;
49366;SDS011;35245;52.026;8.540;2024-02-21T13:33:20;12.05;;;5.63;;
49366;SDS011;35245;52.026;8.540;2024-02-21T13:35:48;13.75;;;5.90;;
49366;SDS011;35245;52.026;8.540;2024-02-21T13:38:16;16.55;;;6.15;;
49366;SDS011;35245;52.026;8.540;2024-02-21T13:40:44;13.93;;;5.45;;
49366;SDS011;35245;52.026;8.540;2024-02-21T13:43:11;15.40;;;5.80;;
49366;SDS011;35245;52.026;8.540;2024-02-21T13:45:38;11.38;;;4.20;;
49366;SDS011;35245;52.026;8.540;2024-02-21T13:48:07;12.38;;;4.78;;
49366;SDS011;35245;52.026;8.540;2024-02-21T13:50:37;12.60;;;4.43;;
49366;SDS011;35245;52.026;8.540;2024-02-21T13:53:08;16.60;;;5.53;;
49366;SDS011;35245;52.026;8.540;2024-02-21T13:55:37;11.18;;;4.65;;
49366;SDS011;35245;52.026;8.540;2024-02-21T13:58:05;11.02;;;4.40;;
49366;SDS011;35245;52.026;8.540;2024-02-21T14:00:34;12.18;;;4.18;;
49366;SDS011;35245;52.026;8.540;2024-02-21T14:03:01;8.57;;;3.58;;
49366;SDS011;35245;52.026;8.540;2024-02-21T14:05:28;8.20;;;4.10;;
49366;SDS011;35245;52.026;8.540;2024-02-21T14:07:55;11.60;;;4.18;;
49366;SDS011;35245;52.026;8.540;2024-02-21T14:10:22;9.20;;;3.58;;
49366;SDS011;35245;52.026;8.540;2024-02-21T14:12:51;12.68;;;4.03;;
49366;SDS011;35245;52.026;8.540;2024-02-21T14:15:18;12.85;;;3.78;;
49366;SDS011;35245;52.026;8.540;2024-02-21T14:17:45;12.27;;;3.88;;
49366;SDS011;35245;52.026;8.540;2024-02-21T14:20:12;10.93;;;3.80;;
49366;SDS011;35245;52.026;8.540;2024-02-21T14:22:40;12.52;;;4.80;;
49366;SDS011;35245;52.026;8.540;2024-02-21T14:25:08;11.35;;;4.18;;
49366;SDS011;35245;52.026;8.540;2024-02-21T14:27:35;13.18;;;4.10;;
49366;SDS011;35245;52.026;8.540;2024-02-21T14:30:04;14.23;;;4.25;;
49366;SDS011;35245;52.026;8.540;2024-02-21T14:32:35;11.40;;;4.20;;
49366;SDS011;35245;52.026;8.540;2024-02-21T14:35:02;12.38;;;3.67;;